Wetterdaten: Woche 05.03.07 - 11.03.07 (KW10)
Datum Zeit Temperatur Luftfeuchte Luftdruck Niederschlag Wind Richtung Sonnenschein UV-Strahlung Solar Taupunkt Windchill Windben
05.03.2007 00:00 4.5 C 88 % 1015.0 hPa 0.0 l/m 0.6 km/h (0 Bft) O 0.00 h 0.0 UV-I 0 W/m 2.7 C 4.5 C 1.5 km/h (1 Bft)
05.03.2007 01:00 4.3 C 87 % 1015.2 hPa 0.0 l/m 2.4 km/h (1 Bft) O 0.00 h 0.0 UV-I 0 W/m 2.4 C 3.8 C 3.5 km/h (1 Bft)
05.03.2007 02:00 3.5 C 90 % 1015.1 hPa 0.0 l/m 2.9 km/h (1 Bft) O-SO 0.00 h 0.0 UV-I 0 W/m 2.0 C 3.0 C 4.3 km/h (1 Bft)
05.03.2007 03:00 3.2 C 90 % 1015.0 hPa 0.0 l/m 1.8 km/h (1 Bft) O-SO 0.00 h 0.0 UV-I 0 W/m 1.8 C 2.9 C 2.8 km/h (1 Bft)
05.03.2007 04:00 2.7 C 92 % 1015.7 hPa 0.0 l/m 2.6 km/h (1 Bft) O-SO 0.00 h 0.0 UV-I 0 W/m 1.5 C 2.1 C 3.6 km/h (1 Bft)
05.03.2007 05:00 2.9 C 92 % 1016.4 hPa 0.0 l/m 2.2 km/h (1 Bft) O-SO 0.00 h 0.0 UV-I 0 W/m 1.8 C 2.4 C 3.5 km/h (1 Bft)
05.03.2007 06:00 3.7 C 90 % 1017.3 hPa 0.0 l/m 2.2 km/h (1 Bft) O-SO 0.00 h 0.0 UV-I 0 W/m 2.3 C 3.4 C 3.9 km/h (1 Bft)
05.03.2007 07:00 4.5 C 91 % 1018.6 hPa 0.0 l/m 2.4 km/h (1 Bft) O-SO 0.00 h 0.0 UV-I 8 W/m 3.1 C 4.2 C 4.2 km/h (1 Bft)
05.03.2007 08:00 7.5 C 84 % 1019.9 hPa 0.0 l/m 3.9 km/h (1 Bft) S-SO 0.00 h 0.0 UV-I 15 W/m 5.0 C 7.1 C 6.4 km/h (2 Bft)
05.03.2007 09:00 8.2 C 87 % 1021.0 hPa 0.2 l/m 4.1 km/h (1 Bft) W-SW 0.00 h 0.6 UV-I 67 W/m 6.1 C 7.8 C 7.6 km/h (2 Bft)
05.03.2007 10:00 9.1 C 84 % 1022.5 hPa 0.0 l/m 13.2 km/h (3 Bft) W 0.00 h 0.7 UV-I 78 W/m 6.5 C 7.2 C 20.7 km/h (4 Bft)
05.03.2007 11:00 9.1 C 81 % 1024.3 hPa 0.0 l/m 16.1 km/h (3 Bft) W 0.00 h 0.9 UV-I 129 W/m 5.9 C 6.7 C 23.8 km/h (4 Bft)
05.03.2007 12:00 8.7 C 83 % 1025.3 hPa 0.4 l/m 8.2 km/h (2 Bft) W 0.00 h 0.9 UV-I 124 W/m 6.0 C 7.6 C 12.8 km/h (3 Bft)
05.03.2007 13:00 8.1 C 81 % 1025.8 hPa 0.2 l/m 10.6 km/h (2 Bft) W-NW 0.00 h 0.8 UV-I 103 W/m 5.0 C 6.5 C 16.0 km/h (3 Bft)
05.03.2007 14:00 8.7 C 84 % 1025.7 hPa 0.0 l/m 0.7 km/h (0 Bft) W 0.10 h 1.1 UV-I 202 W/m 6.1 C 8.7 C 2.4 km/h (1 Bft)
05.03.2007 15:00 11.0 C 72 % 1025.1 hPa 0.0 l/m 5.5 km/h (1 Bft) SW 0.82 h 1.2 UV-I 340 W/m 6.1 C 11.0 C 10.1 km/h (2 Bft)
05.03.2007 16:00 11.3 C 67 % 1024.8 hPa 0.0 l/m 5.5 km/h (1 Bft) SW 0.95 h 0.7 UV-I 217 W/m 5.3 C 11.3 C 10.4 km/h (2 Bft)
05.03.2007 17:00 10.9 C 67 % 1024.8 hPa 0.0 l/m 2.1 km/h (1 Bft) SW 0.50 h 0.5 UV-I 75 W/m 4.9 C 10.9 C 4.8 km/h (1 Bft)
05.03.2007 18:00 8.7 C 72 % 1025.2 hPa 0.0 l/m 3.0 km/h (1 Bft) S-SO 0.03 h 0.0 UV-I 8 W/m 3.9 C 8.7 C 5.4 km/h (1 Bft)
05.03.2007 19:00 6.8 C 78 % 1025.1 hPa 0.0 l/m 3.5 km/h (1 Bft) S-SO 0.00 h 0.0 UV-I 0 W/m 3.3 C 6.5 C 5.3 km/h (1 Bft)
05.03.2007 20:00 5.8 C 83 % 1025.0 hPa 0.0 l/m 1.6 km/h (1 Bft) O-SO 0.00 h 0.0 UV-I 0 W/m 3.1 C 5.7 C 2.4 km/h (1 Bft)
05.03.2007 21:00 4.0 C 89 % 1025.0 hPa 0.0 l/m 0.4 km/h (0 Bft) O-SO 0.00 h 0.0 UV-I 0 W/m 2.5 C 4.0 C 1.1 km/h (1 Bft)
05.03.2007 22:00 3.0 C 93 % 1025.0 hPa 0.0 l/m 0.8 km/h (0 Bft) O-SO 0.00 h 0.0 UV-I 0 W/m 1.9 C 3.0 C 1.4 km/h (1 Bft)
05.03.2007 23:00 2.2 C 95 % 1024.9 hPa 0.0 l/m 0.3 km/h (0 Bft) O-SO 0.00 h 0.0 UV-I 0 W/m 1.5 C 2.2 C 0.7 km/h (0 Bft)
06.03.2007 00:00 1.7 C 96 % 1024.4 hPa 0.0 l/m 0.8 km/h (0 Bft) O-SO 0.00 h 0.0 UV-I 0 W/m 1.2 C 1.7 C 1.4 km/h (1 Bft)
06.03.2007 01:00 0.9 C 97 % 1023.9 hPa 0.0 l/m 0.7 km/h (0 Bft) O-SO 0.00 h 0.0 UV-I 0 W/m 0.5 C 0.8 C 0.9 km/h (0 Bft)
06.03.2007 02:00 0.4 C 97 % 1023.5 hPa 0.0 l/m 1.0 km/h (0 Bft) O-SO 0.00 h 0.0 UV-I 0 W/m 0.0 C 0.4 C 2.0 km/h (1 Bft)
06.03.2007 03:00 0.1 C 98 % 1022.9 hPa 0.0 l/m 0.1 km/h (0 Bft) O-SO 0.00 h 0.0 UV-I 0 W/m -0.2 C 0.1 C 0.3 km/h (0 Bft)
06.03.2007 04:00 0.6 C 99 % 1022.3 hPa 0.0 l/m 0.0 km/h (0 Bft) O-SO 0.00 h 0.0 UV-I 0 W/m 0.5 C 0.6 C 0.3 km/h (0 Bft)
06.03.2007 05:00 0.6 C 99 % 1021.9 hPa 0.0 l/m 0.7 km/h (0 Bft) O-SO 0.00 h 0.0 UV-I 0 W/m 0.5 C 0.6 C 1.6 km/h (1 Bft)
06.03.2007 06:00 0.4 C 99 % 1021.2 hPa 0.0 l/m 0.4 km/h (0 Bft) O-SO 0.00 h 0.0 UV-I 5 W/m 0.2 C 0.4 C 1.4 km/h (1 Bft)
06.03.2007 07:00 0.7 C 100 % 1020.9 hPa 0.0 l/m 0.2 km/h (0 Bft) O-SO 0.02 h 0.0 UV-I 19 W/m 0.6 C 0.7 C 1.1 km/h (1 Bft)
06.03.2007 08:00 1.4 C 100 % 1021.1 hPa 0.0 l/m 0.7 km/h (0 Bft) O-SO 0.00 h 0.5 UV-I 64 W/m 1.4 C 1.3 C 1.8 km/h (1 Bft)
06.03.2007 09:00 2.2 C 100 % 1020.5 hPa 0.0 l/m 2.5 km/h (1 Bft) O-SO 0.00 h 0.7 UV-I 120 W/m 2.2 C 1.9 C 4.4 km/h (1 Bft)
06.03.2007 10:00 3.0 C 100 % 1019.9 hPa 0.0 l/m 1.6 km/h (1 Bft) N 0.00 h 0.9 UV-I 120 W/m 3.0 C 2.9 C 3.0 km/h (1 Bft)
06.03.2007 11:00 5.3 C 94 % 1018.7 hPa 0.0 l/m 2.6 km/h (1 Bft) W-SW 0.80 h 2.3 UV-I 467 W/m 4.3 C 5.1 C 5.3 km/h (1 Bft)
06.03.2007 12:00 8.0 C 79 % 1017.3 hPa 0.0 l/m 2.6 km/h (1 Bft) W-NW 0.97 h 2.9 UV-I 553 W/m 4.5 C 7.9 C 4.9 km/h (1 Bft)
06.03.2007 13:00 10.6 C 70 % 1016.1 hPa 0.0 l/m 3.3 km/h (1 Bft) SO 0.95 h 2.7 UV-I 552 W/m 5.4 C 10.6 C 5.9 km/h (2 Bft)
06.03.2007 14:00 13.2 C 59 % 1014.6 hPa 0.0 l/m 3.1 km/h (1 Bft) S-SO 1.00 h 2.2 UV-I 498 W/m 5.4 C 13.2 C 6.3 km/h (2 Bft)
06.03.2007 15:00 14.4 C 56 % 1013.4 hPa 0.0 l/m 4.7 km/h (1 Bft) SO 0.62 h 1.4 UV-I 351 W/m 5.6 C 14.4 C 8.9 km/h (2 Bft)
06.03.2007 16:00 13.7 C 58 % 1012.7 hPa 0.0 l/m 3.8 km/h (1 Bft) W-SW 0.40 h 0.7 UV-I 177 W/m 5.6 C 13.7 C 6.8 km/h (2 Bft)
06.03.2007 17:00 12.6 C 64 % 1012.5 hPa 0.0 l/m 2.7 km/h (1 Bft) S-SO 0.00 h 0.0 UV-I 38 W/m 6.0 C 12.6 C 5.5 km/h (1 Bft)
06.03.2007 18:00 11.0 C 71 % 1012.6 hPa 0.0 l/m 4.3 km/h (1 Bft) O-SO 0.00 h 0.0 UV-I 8 W/m 5.8 C 11.0 C 6.6 km/h (2 Bft)
06.03.2007 19:00 9.8 C 75 % 1012.4 hPa 0.0 l/m 3.9 km/h (1 Bft) O-SO 0.00 h 0.0 UV-I 0 W/m 5.5 C 9.8 C 5.3 km/h (1 Bft)
06.03.2007 20:00 8.8 C 79 % 1012.3 hPa 0.2 l/m 2.7 km/h (1 Bft) O-SO 0.00 h 0.0 UV-I 0 W/m 5.5 C 8.7 C 4.0 km/h (1 Bft)
06.03.2007 21:00 7.3 C 87 % 1011.9 hPa 0.0 l/m 0.1 km/h (0 Bft) O-SO 0.00 h 0.0 UV-I 0 W/m 5.2 C 7.3 C 0.6 km/h (0 Bft)
06.03.2007 22:00 6.5 C 90 % 1011.5 hPa 0.0 l/m 0.8 km/h (0 Bft) O-SO 0.00 h 0.0 UV-I 0 W/m 5.0 C 6.5 C 1.4 km/h (1 Bft)
06.03.2007 23:00 6.3 C 91 % 1010.7 hPa 0.0 l/m 0.7 km/h (0 Bft) O-SO 0.00 h 0.0 UV-I 0 W/m 4.9 C 6.2 C 1.4 km/h (1 Bft)
07.03.2007 00:00 6.4 C 92 % 1010.0 hPa 0.0 l/m 0.9 km/h (0 Bft) O-SO 0.00 h 0.0 UV-I 0 W/m 5.2 C 6.4 C 1.8 km/h (1 Bft)
07.03.2007 01:00 6.6 C 94 % 1009.7 hPa 0.2 l/m 1.1 km/h (1 Bft) O-SO 0.00 h 0.0 UV-I 0 W/m 5.6 C 6.5 C 2.7 km/h (1 Bft)
07.03.2007 02:00 6.6 C 95 % 1009.3 hPa 0.4 l/m 4.3 km/h (1 Bft) O-SO 0.00 h 0.0 UV-I 0 W/m 5.9 C 6.1 C 5.9 km/h (2 Bft)
07.03.2007 03:00 6.8 C 96 % 1008.9 hPa 1.0 l/m 0.9 km/h (0 Bft) S-SO 0.00 h 0.0 UV-I 0 W/m 6.2 C 6.8 C 1.6 km/h (1 Bft)
07.03.2007 04:00 6.8 C 97 % 1008.3 hPa 1.4 l/m 3.0 km/h (1 Bft) O-SO 0.00 h 0.0 UV-I 0 W/m 6.4 C 6.5 C 4.4 km/h (1 Bft)
07.03.2007 05:00 7.1 C 95 % 1007.8 hPa 1.2 l/m 1.5 km/h (1 Bft) O-SO 0.00 h 0.0 UV-I 0 W/m 6.4 C 7.1 C 3.0 km/h (1 Bft)
07.03.2007 06:00 6.9 C 97 % 1007.6 hPa 0.8 l/m 0.6 km/h (0 Bft) S 0.00 h 0.0 UV-I 0 W/m 6.5 C 6.9 C 1.8 km/h (1 Bft)
07.03.2007 07:00 7.3 C 97 % 1007.6 hPa 1.2 l/m 0.8 km/h (0 Bft) S-SO 0.00 h 0.0 UV-I 14 W/m 6.9 C 7.3 C 2.9 km/h (1 Bft)
07.03.2007 08:00 7.7 C 96 % 1007.5 hPa 0.0 l/m 0.8 km/h (0 Bft) S 0.00 h 0.0 UV-I 36 W/m 7.1 C 7.7 C 2.9 km/h (1 Bft)
07.03.2007 09:00 8.1 C 94 % 1007.1 hPa 0.0 l/m 1.7 km/h (1 Bft) S 0.00 h 0.6 UV-I 94 W/m 7.2 C 8.1 C 4.1 km/h (1 Bft)
07.03.2007 10:00 8.7 C 91 % 1006.7 hPa 0.0 l/m 5.3 km/h (1 Bft) W-NW 0.00 h 1.0 UV-I 126 W/m 7.3 C 8.2 C 9.2 km/h (2 Bft)
07.03.2007 11:00 7.9 C 87 % 1006.4 hPa 0.2 l/m 1.4 km/h (1 Bft) NW 0.00 h 0.8 UV-I 78 W/m 5.9 C 7.8 C 2.6 km/h (1 Bft)
07.03.2007 12:00 9.2 C 79 % 1005.6 hPa 0.0 l/m 1.0 km/h (0 Bft) W 0.18 h 1.6 UV-I 259 W/m 5.7 C 9.2 C 2.4 km/h (1 Bft)
07.03.2007 13:00 9.6 C 75 % 1004.8 hPa 0.0 l/m 4.1 km/h (1 Bft) W 0.00 h 0.9 UV-I 123 W/m 5.3 C 9.3 C 6.5 km/h (2 Bft)
07.03.2007 14:00 10.2 C 71 % 1004.7 hPa 0.0 l/m 1.6 km/h (1 Bft) W 0.20 h 1.4 UV-I 244 W/m 5.2 C 10.2 C 3.6 km/h (1 Bft)
07.03.2007 15:00 11.1 C 67 % 1004.7 hPa 0.0 l/m 3.0 km/h (1 Bft) O-SO 0.58 h 1.3 UV-I 320 W/m 5.2 C 11.1 C 5.1 km/h (1 Bft)
07.03.2007 16:00 11.0 C 69 % 1004.6 hPa 0.0 l/m 2.6 km/h (1 Bft) SO 0.07 h 0.6 UV-I 126 W/m 5.5 C 11.0 C 5.0 km/h (1 Bft)
07.03.2007 17:00 9.9 C 75 % 1004.8 hPa 0.0 l/m 1.8 km/h (1 Bft) SO 0.00 h 0.0 UV-I 37 W/m 5.7 C 9.9 C 3.6 km/h (1 Bft)
07.03.2007 18:00 8.8 C 80 % 1005.5 hPa 0.0 l/m 1.0 km/h (0 Bft) SO 0.00 h 0.0 UV-I 9 W/m 5.6 C 8.8 C 2.1 km/h (1 Bft)
07.03.2007 19:00 7.9 C 84 % 1005.9 hPa 0.0 l/m 0.7 km/h (0 Bft) O-SO 0.00 h 0.0 UV-I 0 W/m 5.4 C 7.9 C 1.5 km/h (1 Bft)
07.03.2007 20:00 6.6 C 89 % 1006.5 hPa 0.0 l/m 0.4 km/h (0 Bft) O-SO 0.00 h 0.0 UV-I 0 W/m 4.8 C 6.6 C 1.0 km/h (0 Bft)
07.03.2007 21:00 5.4 C 93 % 1007.2 hPa 0.0 l/m 0.6 km/h (0 Bft) O-SO 0.00 h 0.0 UV-I 0 W/m 4.4 C 5.3 C 1.2 km/h (1 Bft)
07.03.2007 22:00 5.0 C 95 % 1007.9 hPa 0.0 l/m 0.7 km/h (0 Bft) O-SO 0.00 h 0.0 UV-I 0 W/m 4.3 C 5.0 C 1.5 km/h (1 Bft)
07.03.2007 23:00 5.3 C 95 % 1008.3 hPa 0.0 l/m 1.0 km/h (0 Bft) O-SO 0.00 h 0.0 UV-I 0 W/m 4.5 C 5.3 C 1.8 km/h (1 Bft)
08.03.2007 00:00 5.4 C 94 % 1008.6 hPa 0.0 l/m 0.1 km/h (0 Bft) O-SO 0.00 h 0.0 UV-I 0 W/m 4.4 C 5.4 C 0.4 km/h (0 Bft)
08.03.2007 01:00 5.4 C 94 % 1009.4 hPa 0.0 l/m 0.2 km/h (0 Bft) O-SO 0.00 h 0.0 UV-I 0 W/m 4.5 C 5.4 C 0.9 km/h (0 Bft)
08.03.2007 02:00 5.5 C 94 % 1009.8 hPa 0.0 l/m 0.0 km/h (0 Bft) N 0.00 h 0.0 UV-I 0 W/m 4.7 C 5.5 C 0.3 km/h (0 Bft)
08.03.2007 03:00 5.5 C 95 % 1010.5 hPa 0.0 l/m 0.1 km/h (0 Bft) O-SO 0.00 h 0.0 UV-I 0 W/m 4.7 C 5.5 C 0.3 km/h (0 Bft)
08.03.2007 04:00 5.6 C 95 % 1011.5 hPa 0.0 l/m 0.2 km/h (0 Bft) O-SO 0.00 h 0.0 UV-I 0 W/m 4.8 C 5.6 C 0.9 km/h (0 Bft)
08.03.2007 05:00 5.7 C 94 % 1012.7 hPa 0.0 l/m 0.3 km/h (0 Bft) O-SO 0.00 h 0.0 UV-I 0 W/m 4.8 C 5.7 C 0.8 km/h (0 Bft)
08.03.2007 06:00 5.7 C 96 % 1013.8 hPa 0.0 l/m 0.0 km/h (0 Bft) N 0.00 h 0.0 UV-I 0 W/m 5.1 C 5.7 C 0.1 km/h (0 Bft)
08.03.2007 07:00 6.1 C 95 % 1015.2 hPa 0.2 l/m 0.1 km/h (0 Bft) O-NO 0.00 h 0.0 UV-I 16 W/m 5.3 C 6.1 C 0.7 km/h (0 Bft)
08.03.2007 08:00 6.4 C 95 % 1016.7 hPa 0.0 l/m 0.5 km/h (0 Bft) NO 0.00 h 0.5 UV-I 46 W/m 5.6 C 6.4 C 1.6 km/h (1 Bft)
08.03.2007 09:00 7.4 C 90 % 1017.8 hPa 0.0 l/m 0.7 km/h (0 Bft) N-NO 0.00 h 0.8 UV-I 144 W/m 5.9 C 7.4 C 2.1 km/h (1 Bft)
08.03.2007 10:00 8.3 C 84 % 1018.5 hPa 0.0 l/m 0.9 km/h (0 Bft) N-NO 0.00 h 1.1 UV-I 185 W/m 5.8 C 8.3 C 2.7 km/h (1 Bft)
08.03.2007 11:00 9.1 C 77 % 1019.4 hPa 0.0 l/m 1.1 km/h (1 Bft) N 0.08 h 1.7 UV-I 207 W/m 5.2 C 9.1 C 3.0 km/h (1 Bft)
08.03.2007 12:00 11.1 C 66 % 1019.8 hPa 0.0 l/m 3.3 km/h (1 Bft) W-NW 0.97 h 2.9 UV-I 595 W/m 5.0 C 11.1 C 5.6 km/h (1 Bft)
08.03.2007 13:00 11.5 C 62 % 1020.1 hPa 0.0 l/m 2.6 km/h (1 Bft) W-SW 0.35 h 2.1 UV-I 375 W/m 4.5 C 11.5 C 4.8 km/h (1 Bft)
08.03.2007 14:00 12.2 C 56 % 1020.8 hPa 0.0 l/m 3.4 km/h (1 Bft) W 0.53 h 1.8 UV-I 397 W/m 3.7 C 12.2 C 5.5 km/h (1 Bft)
08.03.2007 15:00 12.2 C 55 % 1021.5 hPa 0.0 l/m 2.0 km/h (1 Bft) W 0.00 h 0.9 UV-I 159 W/m 3.3 C 12.2 C 3.9 km/h (1 Bft)
08.03.2007 16:00 11.7 C 61 % 1022.3 hPa 0.0 l/m 1.1 km/h (1 Bft) S-SO 0.00 h 0.5 UV-I 57 W/m 4.4 C 11.7 C 2.8 km/h (1 Bft)
08.03.2007 17:00 11.1 C 65 % 1023.3 hPa 0.0 l/m 0.6 km/h (0 Bft) S-SO 0.00 h 0.0 UV-I 15 W/m 4.7 C 11.1 C 1.6 km/h (1 Bft)
08.03.2007 18:00 10.5 C 57 % 1024.6 hPa 0.0 l/m 5.3 km/h (1 Bft) N 0.00 h 0.0 UV-I 8 W/m 2.2 C 10.5 C 9.2 km/h (2 Bft)
08.03.2007 19:00 9.6 C 56 % 1026.0 hPa 0.0 l/m 4.6 km/h (1 Bft) N-NO 0.00 h 0.0 UV-I 0 W/m 1.2 C 9.4 C 8.8 km/h (2 Bft)
08.03.2007 20:00 8.2 C 61 % 1027.2 hPa 0.0 l/m 1.7 km/h (1 Bft) NO 0.00 h 0.0 UV-I 0 W/m 1.2 C 8.2 C 4.1 km/h (1 Bft)
08.03.2007 21:00 7.3 C 68 % 1028.2 hPa 0.0 l/m 1.0 km/h (0 Bft) NO 0.00 h 0.0 UV-I 0 W/m 1.7 C 7.3 C 2.8 km/h (1 Bft)
08.03.2007 22:00 6.6 C 73 % 1028.8 hPa 0.0 l/m 0.6 km/h (0 Bft) O-NO 0.00 h 0.0 UV-I 0 W/m 2.2 C 6.6 C 1.0 km/h (0 Bft)
08.03.2007 23:00 5.7 C 79 % 1029.1 hPa 0.0 l/m 0.4 km/h (0 Bft) N-NO 0.00 h 0.0 UV-I 0 W/m 2.3 C 5.7 C 1.6 km/h (1 Bft)
09.03.2007 00:00 4.0 C 85 % 1029.3 hPa 0.0 l/m 1.3 km/h (1 Bft) O 0.00 h 0.0 UV-I 0 W/m 1.8 C 3.9 C 2.5 km/h (1 Bft)
09.03.2007 01:00 3.1 C 89 % 1029.8 hPa 0.0 l/m 1.0 km/h (0 Bft) O-SO 0.00 h 0.0 UV-I 0 W/m 1.4 C 3.0 C 1.6 km/h (1 Bft)
09.03.2007 02:00 2.1 C 90 % 1029.8 hPa 0.0 l/m 1.0 km/h (0 Bft) O-SO 0.00 h 0.0 UV-I 0 W/m 0.7 C 2.1 C 2.0 km/h (1 Bft)
09.03.2007 03:00 1.6 C 92 % 1029.5 hPa 0.0 l/m 0.0 km/h (0 Bft) N 0.00 h 0.0 UV-I 0 W/m 0.5 C 1.6 C 0.2 km/h (0 Bft)
09.03.2007 04:00 1.0 C 94 % 1029.9 hPa 0.0 l/m 0.6 km/h (0 Bft) O-SO 0.00 h 0.0 UV-I 0 W/m 0.0 C 1.0 C 1.1 km/h (1 Bft)
09.03.2007 05:00 0.7 C 94 % 1030.3 hPa 0.0 l/m 1.5 km/h (1 Bft) O-SO 0.00 h 0.0 UV-I 0 W/m -0.2 C 0.5 C 2.4 km/h (1 Bft)
09.03.2007 06:00 0.5 C 93 % 1030.8 hPa 0.0 l/m 1.0 km/h (0 Bft) O 0.00 h 0.0 UV-I 6 W/m -0.5 C 0.5 C 2.3 km/h (1 Bft)
09.03.2007 07:00 0.3 C 95 % 1031.0 hPa 0.0 l/m 0.0 km/h (0 Bft) N 0.15 h 0.0 UV-I 46 W/m -0.5 C 0.3 C 0.1 km/h (0 Bft)
09.03.2007 08:00 1.7 C 92 % 1031.4 hPa 0.0 l/m 1.3 km/h (1 Bft) O 1.00 h 0.7 UV-I 185 W/m 0.5 C 1.7 C 2.4 km/h (1 Bft)
09.03.2007 09:00 4.2 C 80 % 1030.9 hPa 0.0 l/m 0.1 km/h (0 Bft) O-SO 1.00 h 1.3 UV-I 344 W/m 1.0 C 4.2 C 0.7 km/h (0 Bft)
09.03.2007 10:00 6.7 C 72 % 1030.1 hPa 0.0 l/m 0.6 km/h (0 Bft) O-SO 1.00 h 2.1 UV-I 428 W/m 2.0 C 6.7 C 2.0 km/h (1 Bft)
09.03.2007 11:00 8.8 C 65 % 1029.5 hPa 0.0 l/m 1.9 km/h (1 Bft) NW 1.00 h 2.7 UV-I 494 W/m 2.7 C 8.8 C 3.9 km/h (1 Bft)
09.03.2007 12:00 10.2 C 61 % 1028.8 hPa 0.0 l/m 1.9 km/h (1 Bft) NW 1.00 h 2.9 UV-I 511 W/m 3.0 C 10.2 C 3.6 km/h (1 Bft)
09.03.2007 13:00 11.4 C 56 % 1027.7 hPa 0.0 l/m 2.6 km/h (1 Bft) W-SW 0.95 h 2.4 UV-I 425 W/m 2.8 C 11.4 C 5.0 km/h (1 Bft)
09.03.2007 14:00 11.5 C 53 % 1027.0 hPa 0.0 l/m 6.8 km/h (2 Bft) W 0.18 h 1.6 UV-I 289 W/m 2.2 C 11.5 C 11.1 km/h (2 Bft)
09.03.2007 15:00 11.4 C 50 % 1026.6 hPa 0.0 l/m 8.5 km/h (2 Bft) W 0.53 h 1.0 UV-I 262 W/m 1.4 C 11.4 C 13.1 km/h (3 Bft)
09.03.2007 16:00 11.0 C 51 % 1026.0 hPa 0.0 l/m 9.3 km/h (2 Bft) W 0.00 h 0.6 UV-I 125 W/m 1.3 C 11.0 C 13.7 km/h (3 Bft)
09.03.2007 17:00 10.3 C 54 % 1025.9 hPa 0.0 l/m 9.9 km/h (2 Bft) W-NW 0.00 h 0.0 UV-I 40 W/m 1.4 C 10.3 C 15.2 km/h (3 Bft)
09.03.2007 18:00 9.8 C 54 % 1026.0 hPa 0.0 l/m 12.2 km/h (2 Bft) W-NW 0.00 h 0.0 UV-I 7 W/m 0.9 C 8.0 C 17.8 km/h (3 Bft)
09.03.2007 19:00 9.3 C 57 % 1026.4 hPa 0.0 l/m 9.2 km/h (2 Bft) W-NW 0.00 h 0.0 UV-I 0 W/m 1.2 C 8.0 C 13.8 km/h (3 Bft)
09.03.2007 20:00 8.8 C 60 % 1026.9 hPa 0.0 l/m 5.8 km/h (1 Bft) W-NW 0.00 h 0.0 UV-I 0 W/m 1.4 C 8.2 C 8.4 km/h (2 Bft)
09.03.2007 21:00 8.3 C 65 % 1026.9 hPa 0.0 l/m 9.4 km/h (2 Bft) W 0.00 h 0.0 UV-I 0 W/m 2.2 C 7.0 C 14.5 km/h (3 Bft)
09.03.2007 22:00 6.3 C 83 % 1027.5 hPa 0.2 l/m 16.5 km/h (3 Bft) W-NW 0.00 h 0.0 UV-I 0 W/m 3.6 C 3.1 C 25.3 km/h (4 Bft)
09.03.2007 23:00 5.1 C 88 % 1028.1 hPa 0.0 l/m 6.0 km/h (2 Bft) W-NW 0.00 h 0.0 UV-I 0 W/m 3.3 C 4.0 C 10.1 km/h (2 Bft)
10.03.2007 00:00 5.4 C 87 % 1028.5 hPa 0.0 l/m 6.6 km/h (2 Bft) W 0.00 h 0.0 UV-I 0 W/m 3.4 C 4.1 C 10.8 km/h (2 Bft)
10.03.2007 01:00 5.6 C 86 % 1029.1 hPa 0.0 l/m 10.8 km/h (2 Bft) W 0.00 h 0.0 UV-I 0 W/m 3.5 C 3.3 C 17.5 km/h (3 Bft)
10.03.2007 02:00 5.3 C 83 % 1030.2 hPa 0.0 l/m 9.1 km/h (2 Bft) W-NW 0.00 h 0.0 UV-I 0 W/m 2.7 C 3.3 C 14.3 km/h (3 Bft)
10.03.2007 03:00 4.7 C 83 % 1031.3 hPa 0.0 l/m 2.4 km/h (1 Bft) W-SW 0.00 h 0.0 UV-I 0 W/m 2.1 C 4.6 C 4.4 km/h (1 Bft)
10.03.2007 04:00 4.6 C 83 % 1032.5 hPa 0.0 l/m 1.3 km/h (1 Bft) W-NW 0.00 h 0.0 UV-I 0 W/m 1.9 C 4.5 C 3.2 km/h (1 Bft)
10.03.2007 05:00 4.7 C 82 % 1033.5 hPa 0.0 l/m 0.6 km/h (0 Bft) W-NW 0.00 h 0.0 UV-I 0 W/m 1.9 C 4.7 C 1.7 km/h (1 Bft)
10.03.2007 06:00 4.4 C 85 % 1034.6 hPa 0.0 l/m 0.4 km/h (0 Bft) W-NW 0.00 h 0.0 UV-I 0 W/m 2.0 C 4.4 C 1.4 km/h (1 Bft)
10.03.2007 07:00 3.8 C 88 % 1035.9 hPa 0.0 l/m 0.8 km/h (0 Bft) N 0.00 h 0.0 UV-I 28 W/m 1.9 C 3.8 C 1.6 km/h (1 Bft)
10.03.2007 08:00 4.1 C 89 % 1036.9 hPa 0.0 l/m 0.0 km/h (0 Bft) N 0.02 h 0.5 UV-I 101 W/m 2.5 C 4.1 C 0.2 km/h (0 Bft)
10.03.2007 09:00 5.8 C 71 % 1037.5 hPa 0.0 l/m 3.2 km/h (1 Bft) N 0.55 h 1.1 UV-I 303 W/m 0.9 C 5.3 C 6.6 km/h (2 Bft)
10.03.2007 10:00 7.1 C 62 % 1038.1 hPa 0.0 l/m 5.0 km/h (1 Bft) O-SO 0.73 h 1.9 UV-I 451 W/m 0.3 C 6.5 C 9.8 km/h (2 Bft)
10.03.2007 11:00 8.0 C 59 % 1038.2 hPa 0.0 l/m 5.2 km/h (1 Bft) O-SO 0.67 h 2.5 UV-I 553 W/m 0.4 C 7.4 C 10.1 km/h (2 Bft)
10.03.2007 12:00 8.9 C 54 % 1038.2 hPa 0.0 l/m 4.7 km/h (1 Bft) O 0.55 h 2.6 UV-I 514 W/m 0.0 C 8.5 C 8.8 km/h (2 Bft)
10.03.2007 13:00 9.7 C 50 % 1037.9 hPa 0.0 l/m 5.3 km/h (1 Bft) O-SO 0.78 h 2.6 UV-I 592 W/m -0.3 C 9.4 C 9.5 km/h (2 Bft)
10.03.2007 14:00 9.8 C 45 % 1037.2 hPa 0.0 l/m 3.1 km/h (1 Bft) O-SO 0.40 h 1.8 UV-I 335 W/m -1.6 C 9.7 C 6.1 km/h (2 Bft)
10.03.2007 15:00 10.2 C 44 % 1037.4 hPa 0.0 l/m 4.2 km/h (1 Bft) O-SO 0.87 h 1.3 UV-I 399 W/m -1.5 C 10.1 C 7.4 km/h (2 Bft)
10.03.2007 16:00 10.0 C 44 % 1037.2 hPa 0.0 l/m 3.2 km/h (1 Bft) O-SO 0.98 h 0.7 UV-I 259 W/m -1.7 C 9.9 C 6.1 km/h (2 Bft)
10.03.2007 17:00 8.8 C 53 % 1037.6 hPa 0.0 l/m 3.4 km/h (1 Bft) SO 0.12 h 0.0 UV-I 55 W/m -0.4 C 8.7 C 5.4 km/h (1 Bft)
10.03.2007 18:00 7.1 C 60 % 1038.0 hPa 0.0 l/m 3.9 km/h (1 Bft) O-SO 0.00 h 0.0 UV-I 10 W/m -0.2 C 6.8 C 5.7 km/h (1 Bft)
10.03.2007 19:00 5.2 C 70 % 1038.3 hPa 0.0 l/m 2.8 km/h (1 Bft) O-SO 0.00 h 0.0 UV-I 0 W/m 0.1 C 4.8 C 4.2 km/h (1 Bft)
10.03.2007 20:00 3.6 C 75 % 1038.5 hPa 0.0 l/m 2.4 km/h (1 Bft) O-SO 0.00 h 0.0 UV-I 0 W/m -0.3 C 3.3 C 3.8 km/h (1 Bft)
10.03.2007 21:00 2.6 C 80 % 1038.5 hPa 0.0 l/m 1.4 km/h (1 Bft) O-SO 0.00 h 0.0 UV-I 0 W/m -0.6 C 2.4 C 2.3 km/h (1 Bft)
10.03.2007 22:00 2.0 C 82 % 1038.5 hPa 0.0 l/m 0.6 km/h (0 Bft) O-SO 0.00 h 0.0 UV-I 0 W/m -0.7 C 2.0 C 1.2 km/h (1 Bft)
10.03.2007 23:00 1.5 C 85 % 1038.3 hPa 0.0 l/m 0.1 km/h (0 Bft) O-SO 0.00 h 0.0 UV-I 0 W/m -0.8 C 1.5 C 0.4 km/h (0 Bft)
11.03.2007 00:00 0.8 C 88 % 1038.0 hPa 0.0 l/m 0.1 km/h (0 Bft) O-SO 0.00 h 0.0 UV-I 0 W/m -0.9 C 0.8 C 0.3 km/h (0 Bft)
11.03.2007 01:00 0.1 C 90 % 1038.1 hPa 0.0 l/m 1.3 km/h (1 Bft) O-SO 0.00 h 0.0 UV-I 0 W/m -1.4 C 0.1 C 2.4 km/h (1 Bft)
11.03.2007 02:00 -0.2 C 89 % 1037.7 hPa 0.0 l/m 0.0 km/h (0 Bft) N 0.00 h 0.0 UV-I 0 W/m -1.7 C -0.2 C 0.3 km/h (0 Bft)
11.03.2007 03:00 -0.5 C 91 % 1037.4 hPa 0.0 l/m 0.1 km/h (0 Bft) O 0.00 h 0.0 UV-I 0 W/m -1.9 C -0.5 C 0.6 km/h (0 Bft)
11.03.2007 04:00 -0.8 C 92 % 1037.0 hPa 0.0 l/m 0.2 km/h (0 Bft) O 0.00 h 0.0 UV-I 0 W/m -1.9 C -0.8 C 0.8 km/h (0 Bft)
11.03.2007 05:00 -0.9 C 93 % 1037.1 hPa 0.0 l/m 0.0 km/h (0 Bft) O 0.00 h 0.0 UV-I 0 W/m -1.9 C -0.9 C 0.4 km/h (0 Bft)
11.03.2007 06:00 -1.1 C 93 % 1037.0 hPa 0.0 l/m 0.1 km/h (0 Bft) O 0.00 h 0.0 UV-I 7 W/m -2.1 C -1.1 C 0.4 km/h (0 Bft)
11.03.2007 07:00 -1.0 C 94 % 1037.0 hPa 0.0 l/m 0.9 km/h (0 Bft) N 0.47 h 0.0 UV-I 59 W/m -1.8 C -1.1 C 2.2 km/h (1 Bft)
11.03.2007 08:00 0.4 C 90 % 1036.8 hPa 0.0 l/m 0.3 km/h (0 Bft) N 1.00 h 0.7 UV-I 206 W/m -1.0 C 0.4 C 1.0 km/h (0 Bft)
11.03.2007 09:00 3.3 C 79 % 1036.4 hPa 0.0 l/m 0.8 km/h (0 Bft) N 1.00 h 1.3 UV-I 357 W/m -0.1 C 3.2 C 2.4 km/h (1 Bft)
11.03.2007 10:00 6.6 C 65 % 1035.7 hPa 0.0 l/m 4.8 km/h (1 Bft) O-SO 1.00 h 2.1 UV-I 489 W/m 0.5 C 5.9 C 8.3 km/h (2 Bft)
11.03.2007 11:00 8.6 C 53 % 1034.8 hPa 0.0 l/m 7.0 km/h (2 Bft) O-SO 1.00 h 2.8 UV-I 579 W/m -0.6 C 7.7 C 13.1 km/h (3 Bft)
11.03.2007 12:00 9.8 C 46 % 1034.0 hPa 0.0 l/m 9.3 km/h (2 Bft) O-SO 1.00 h 3.1 UV-I 615 W/m -1.2 C 8.7 C 16.0 km/h (3 Bft)
11.03.2007 13:00 10.8 C 45 % 1033.0 hPa 0.0 l/m 9.2 km/h (2 Bft) O-SO 1.00 h 2.9 UV-I 595 W/m -0.6 C 10.8 C 15.2 km/h (3 Bft)
11.03.2007 14:00 11.7 C 41 % 1032.1 hPa 0.0 l/m 10.8 km/h (2 Bft) O-SO 1.00 h 2.3 UV-I 526 W/m -1.3 C 11.7 C 17.8 km/h (3 Bft)
11.03.2007 15:00 11.9 C 38 % 1031.5 hPa 0.0 l/m 11.1 km/h (2 Bft) O-SO 1.00 h 1.5 UV-I 415 W/m -1.9 C 11.9 C 19.5 km/h (3 Bft)
11.03.2007 16:00 12.3 C 37 % 1030.8 hPa 0.0 l/m 4.7 km/h (1 Bft) O-SO 1.00 h 0.8 UV-I 263 W/m -1.8 C 12.3 C 9.6 km/h (2 Bft)
11.03.2007 17:00 11.3 C 39 % 1030.8 hPa 0.0 l/m 4.5 km/h (1 Bft) O 0.33 h 0.5 UV-I 70 W/m -2.1 C 11.3 C 9.3 km/h (2 Bft)
11.03.2007 18:00 10.0 C 43 % 1030.8 hPa 0.0 l/m 3.7 km/h (1 Bft) NO 0.02 h 0.0 UV-I 11 W/m -2.1 C 9.9 C 8.6 km/h (2 Bft)
11.03.2007 19:00 8.7 C 47 % 1030.7 hPa 0.0 l/m 2.7 km/h (1 Bft) N-NO 0.00 h 0.0 UV-I 0 W/m -1.9 C 8.5 C 6.6 km/h (2 Bft)
11.03.2007 20:00 7.7 C 51 % 1030.5 hPa 0.0 l/m 2.0 km/h (1 Bft) N-NO 0.00 h 0.0 UV-I 0 W/m -1.8 C 7.6 C 5.0 km/h (1 Bft)
11.03.2007 21:00 6.8 C 55 % 1030.2 hPa 0.0 l/m 0.6 km/h (0 Bft) O-NO 0.00 h 0.0 UV-I 0 W/m -1.7 C 6.8 C 1.9 km/h (1 Bft)
11.03.2007 22:00 5.9 C 59 % 1030.1 hPa 0.0 l/m 1.3 km/h (1 Bft) N-NO 0.00 h 0.0 UV-I 0 W/m -1.4 C 5.9 C 3.3 km/h (1 Bft)
11.03.2007 23:00 5.4 C 62 % 1029.9 hPa 0.0 l/m 2.5 km/h (1 Bft) N-NO 0.00 h 0.0 UV-I 0 W/m -1.3 C 5.2 C 5.4 km/h (1 Bft)
Min-Datum _ 11.03.07 11.03.07 07.03.07 - 05.03.07 - - - - 10.03.07 11.03.07 05.03.07
_ Min-Zeit 06:22 16:12 14:45 - 00:00 - - - - 14:34 07:26 00:00
Minimum _ -1.3 C 35 % 1004.6 hPa - 0.0 km/h (0 Bft) - - - - -2.9 C -3.0 C 0.0 km/h (0 Bft)
Max-Datum _ 06.03.07 06.03.07 10.03.07 07.03.07 05.03.07 - 05.03.07 08.03.07 10.03.07 07.03.07 06.03.07 05.03.07
_ Max-Zeit 15:21 06:51 20:45 04:00 11:23 - 14:53 12:05 12:17 10:18 15:21 11:23
Maximum _ 15.5 C 100 % 1038.7 hPa 1.4 l/m 28.6 km/h
W (4 Bft)
- 0.02 h 3.2 UV-I 846 W/m 7.9 C 15.5 C 42.9 km/h
W (6 Bft)
Durchschnitt _ 6.5 C 78 % 1023.4 hPa #7.8 l/m 2.9 km/h (1 Bft) O-SO #32:25 h 1.4 UV-I 218 W/m 2.5 C 6.3 C 5.1 km/h (1 Bft)
© Kaiko 2007